Time;durP1;ratioP1;P1;durP2;ratioP2;P2;SDS_P1;SDS_P2;PMS_P1;PMS_P2;Temp;Humidity;BMP_temperature;BMP_pressure;BME280_temperature;BME280_humidity;BME280_pressure;Samples;Min_cycle;Max_cycle;Signal;HPM_P1;HPM_P2
2021/12/18 00:00:20;;;;;;;0.00;0.00;;;;;;;;;;6272119;22;20027;-61
2021/12/18 00:02:45;;;;;;;0.00;0.00;;;;;;;;;;6272701;22;20029;-62
2021/12/18 00:05:11;;;;;;;0.00;0.00;;;;;;;;;;6272001;22;20027;-63
2021/12/18 00:07:36;;;;;;;0.00;0.00;;;;;;;;;;6271568;22;19995;-62
2021/12/18 00:10:03;;;;;;;0.00;0.00;;;;;;;;;;6272540;22;20841;-62
2021/12/18 00:12:28;;;;;;;0.00;0.00;;;;;;;;;;6244675;22;20329;-62
2021/12/18 00:14:53;;;;;;;0.00;0.00;;;;;;;;;;6271396;22;20823;-63
2021/12/18 00:17:18;;;;;;;0.00;0.00;;;;;;;;;;6271009;22;20620;-63
2021/12/18 00:19:44;;;;;;;1.00;1.00;;;;;;;;;;6272085;22;20004;-62
2021/12/18 00:22:09;;;;;;;1.02;1.02;;;;;;;;;;6271732;22;20003;-62
2021/12/18 00:24:34;;;;;;;0.00;0.00;;;;;;;;;;6271602;22;20484;-62
2021/12/18 00:26:59;;;;;;;0.00;0.00;;;;;;;;;;6272084;22;19999;-62
2021/12/18 00:29:25;;;;;;;0.00;0.00;;;;;;;;;;6271689;22;20000;-62
2021/12/18 00:31:51;;;;;;;0.00;0.00;;;;;;;;;;6272052;22;20003;-63
2021/12/18 00:34:16;;;;;;;0.00;0.00;;;;;;;;;;6271437;22;20002;-63
2021/12/18 00:36:41;;;;;;;0.00;0.00;;;;;;;;;;6271828;22;20004;-64
2021/12/18 00:39:07;;;;;;;0.13;0.13;;;;;;;;;;6271927;22;20083;-63
2021/12/18 00:44:04;;;;;;;0.17;0.17;;;;;;;;;;6272090;22;20000;-62
2021/12/18 00:46:31;;;;;;;0.00;0.00;;;;;;;;;;6271583;22;20003;-62
2021/12/18 00:48:56;;;;;;;0.00;0.00;;;;;;;;;;6271766;22;20321;-62
2021/12/18 00:51:21;;;;;;;0.00;0.00;;;;;;;;;;6271808;22;20021;-62
2021/12/18 00:53:47;;;;;;;0.55;0.55;;;;;;;;;;6271940;22;20003;-63
2021/12/18 00:56:12;;;;;;;0.10;0.10;;;;;;;;;;6272189;22;20071;-62
2021/12/18 00:58:38;;;;;;;0.80;0.80;;;;;;;;;;6271489;22;20425;-62
2021/12/18 01:01:08;;;;;;;0.35;0.35;;;;;;;;;;6271439;22;20540;-62
2021/12/18 01:03:35;;;;;;;0.00;0.00;;;;;;;;;;6271708;22;20007;-62
2021/12/18 01:06:00;;;;;;;1.65;1.65;;;;;;;;;;6271700;22;20030;-63
2021/12/18 01:08:25;;;;;;;0.00;0.00;;;;;;;;;;6271427;22;20406;-63
2021/12/18 01:13:23;;;;;;;0.00;0.00;;;;;;;;;;6270957;22;20439;-63
2021/12/18 01:15:52;;;;;;;0.00;0.00;;;;;;;;;;6272515;22;19999;-63
2021/12/18 01:23:47;;;;;;;0.00;0.00;;;;;;;;;;6271434;22;20701;-65
2021/12/18 01:26:13;;;;;;;0.10;0.10;;;;;;;;;;6271148;22;19996;-66
2021/12/18 01:28:38;;;;;;;0.30;0.30;;;;;;;;;;6274434;22;20049;-65
2021/12/18 01:31:04;;;;;;;0.00;0.00;;;;;;;;;;6273488;22;20004;-65
2021/12/18 01:33:29;;;;;;;0.00;0.00;;;;;;;;;;6274397;22;20028;-65
2021/12/18 01:35:55;;;;;;;2.25;2.08;;;;;;;;;;6274994;22;20007;-65
2021/12/18 01:38:22;;;;;;;0.50;0.50;;;;;;;;;;6274395;22;19999;-65
2021/12/18 01:40:48;;;;;;;0.00;0.00;;;;;;;;;;6274848;22;20082;-64
2021/12/18 01:51:22;;;;;;;0.43;0.43;;;;;;;;;;6274334;22;20050;-65
2021/12/18 01:53:50;;;;;;;0.00;0.00;;;;;;;;;;6274777;22;20314;-65
2021/12/18 01:56:16;;;;;;;0.00;0.00;;;;;;;;;;6274121;22;20408;-65
2021/12/18 01:58:44;;;;;;;0.10;0.10;;;;;;;;;;6274459;22;20007;-65
2021/12/18 02:01:09;;;;;;;1.55;1.55;;;;;;;;;;6274709;22;20637;-65
2021/12/18 02:03:34;;;;;;;0.00;0.00;;;;;;;;;;6273732;22;20022;-65
2021/12/18 02:06:00;;;;;;;0.75;0.75;;;;;;;;;;6274723;22;20437;-65
2021/12/18 02:08:26;;;;;;;0.00;0.00;;;;;;;;;;6274101;22;19992;-65
2021/12/18 02:10:57;;;;;;;18.80;17.35;;;;;;;;;;6274226;22;20000;-65
2021/12/18 02:21:35;;;;;;;0.00;0.00;;;;;;;;;;6273925;22;20014;-64
2021/12/18 02:24:00;;;;;;;0.00;0.00;;;;;;;;;;6274653;22;20019;-65
2021/12/18 02:26:25;;;;;;;0.00;0.00;;;;;;;;;;6274090;22;20402;-64
2021/12/18 02:28:52;;;;;;;0.00;0.00;;;;;;;;;;6274258;22;19992;-64
2021/12/18 02:31:18;;;;;;;0.00;0.00;;;;;;;;;;6274309;22;20014;-64
2021/12/18 02:33:46;;;;;;;0.00;0.00;;;;;;;;;;6274175;22;20079;-64
2021/12/18 02:36:19;;;;;;;3.20;3.10;;;;;;;;;;6274443;22;20001;-64
2021/12/18 02:43:57;;;;;;;0.68;0.68;;;;;;;;;;6273389;22;20008;-65
2021/12/18 02:46:22;;;;;;;0.00;0.00;;;;;;;;;;6272714;22;20075;-65
2021/12/18 02:48:49;;;;;;;0.00;0.00;;;;;;;;;;6271950;22;20351;-65
2021/12/18 02:51:15;;;;;;;3.30;3.00;;;;;;;;;;6273136;22;19996;-64
2021/12/18 02:53:44;;;;;;;0.00;0.00;;;;;;;;;;6272243;22;20363;-65
2021/12/18 02:56:11;;;;;;;0.47;0.13;;;;;;;;;;6272772;22;20007;-64
2021/12/18 02:58:37;;;;;;;2.90;2.55;;;;;;;;;;6271863;22;20061;-66
2021/12/18 03:01:06;;;;;;;0.28;0.28;;;;;;;;;;6272906;22;20007;-65
2021/12/18 03:03:35;;;;;;;0.45;0.45;;;;;;;;;;6272045;22;20451;-64
2021/12/18 03:27:17;;;;;;;0.00;0.00;;;;;;;;;;6282518;22;20027;-64
2021/12/18 03:29:43;;;;;;;0.00;0.00;;;;;;;;;;6271833;22;20353;-64
2021/12/18 03:32:08;;;;;;;0.00;0.00;;;;;;;;;;6272154;22;20400;-64
2021/12/18 03:34:33;;;;;;;0.20;0.20;;;;;;;;;;6272177;22;19995;-64
2021/12/18 03:36:58;;;;;;;0.00;0.00;;;;;;;;;;6272124;22;20011;-65
2021/12/18 03:39:24;;;;;;;0.00;0.00;;;;;;;;;;6271734;22;20003;-65
2021/12/18 03:41:49;;;;;;;0.00;0.00;;;;;;;;;;6272283;22;20034;-65
2021/12/18 03:44:14;;;;;;;0.00;0.00;;;;;;;;;;6272093;22;20104;-64
2021/12/18 03:46:39;;;;;;;0.00;0.00;;;;;;;;;;6271174;22;20460;-65
2021/12/18 03:49:05;;;;;;;0.00;0.00;;;;;;;;;;6272205;22;20365;-63
2021/12/18 03:51:30;;;;;;;0.00;0.00;;;;;;;;;;6271463;22;19999;-64
2021/12/18 03:53:55;;;;;;;4.47;3.85;;;;;;;;;;6271456;22;19996;-64
2021/12/18 03:56:20;;;;;;;0.00;0.00;;;;;;;;;;6272354;22;20027;-64
2021/12/18 03:58:46;;;;;;;0.47;0.47;;;;;;;;;;6271204;22;20054;-63
2021/12/18 04:01:11;;;;;;;0.00;0.00;;;;;;;;;;6272206;22;20424;-63
2021/12/18 04:03:36;;;;;;;0.00;0.00;;;;;;;;;;6271420;22;20008;-64
2021/12/18 04:06:01;;;;;;;0.00;0.00;;;;;;;;;;6271556;22;20321;-64
2021/12/18 04:08:27;;;;;;;0.00;0.00;;;;;;;;;;6271380;22;20008;-64
2021/12/18 04:10:52;;;;;;;0.00;0.00;;;;;;;;;;6271743;22;20007;-64
2021/12/18 04:13:17;;;;;;;0.00;0.00;;;;;;;;;;6272061;22;20010;-64
2021/12/18 04:15:42;;;;;;;0.00;0.00;;;;;;;;;;6271177;22;19995;-64
2021/12/18 04:18:08;;;;;;;0.00;0.00;;;;;;;;;;6271869;22;19999;-64
2021/12/18 04:20:33;;;;;;;0.00;0.00;;;;;;;;;;6271458;22;20057;-63
2021/12/18 04:22:58;;;;;;;0.00;0.00;;;;;;;;;;6271965;22;19995;-64
2021/12/18 04:25:23;;;;;;;0.00;0.00;;;;;;;;;;6270923;22;20000;-65
2021/12/18 04:27:49;;;;;;;0.10;0.10;;;;;;;;;;6271183;22;20400;-64
2021/12/18 04:30:14;;;;;;;0.00;0.00;;;;;;;;;;6272197;22;20039;-64
2021/12/18 04:32:39;;;;;;;0.00;0.00;;;;;;;;;;6271519;22;20401;-64
2021/12/18 04:35:05;;;;;;;0.93;0.88;;;;;;;;;;6271291;22;20025;-64
2021/12/18 04:37:30;;;;;;;0.00;0.00;;;;;;;;;;6271153;22;20003;-65
2021/12/18 04:39:56;;;;;;;0.10;0.10;;;;;;;;;;6244724;22;20022;-64
2021/12/18 04:42:21;;;;;;;0.00;0.00;;;;;;;;;;6271357;22;20125;-64
2021/12/18 04:44:47;;;;;;;0.10;0.10;;;;;;;;;;6270937;22;20022;-65
2021/12/18 04:47:12;;;;;;;0.03;0.03;;;;;;;;;;6271202;22;20006;-64
2021/12/18 04:49:37;;;;;;;0.00;0.00;;;;;;;;;;6270917;22;20071;-64
2021/12/18 04:52:06;;;;;;;0.00;0.00;;;;;;;;;;6271620;22;20010;-64
2021/12/18 04:54:31;;;;;;;0.00;0.00;;;;;;;;;;6270598;22;20655;-65
2021/12/18 04:56:57;;;;;;;0.00;0.00;;;;;;;;;;6271476;22;20004;-65
2021/12/18 04:59:22;;;;;;;0.00;0.00;;;;;;;;;;6270240;22;20019;-65
2021/12/18 05:01:48;;;;;;;0.00;0.00;;;;;;;;;;6270666;22;20073;-65
2021/12/18 05:04:14;;;;;;;5.35;4.90;;;;;;;;;;6271131;22;20026;-65
2021/12/18 05:06:43;;;;;;;0.00;0.00;;;;;;;;;;6271274;22;20006;-64
2021/12/18 05:09:08;;;;;;;0.00;0.00;;;;;;;;;;6271632;22;19991;-65
2021/12/18 05:11:34;;;;;;;0.93;0.88;;;;;;;;;;6271133;22;20037;-64
2021/12/18 05:14:02;;;;;;;0.00;0.00;;;;;;;;;;6271222;22;20003;-64
2021/12/18 05:16:28;;;;;;;0.00;0.00;;;;;;;;;;6269704;22;19996;-64
2021/12/18 05:18:53;;;;;;;0.00;0.00;;;;;;;;;;6271179;22;20053;-64
2021/12/18 05:21:18;;;;;;;0.00;0.00;;;;;;;;;;6271554;22;19996;-63
2021/12/18 05:23:43;;;;;;;0.00;0.00;;;;;;;;;;6243150;22;20006;-64
2021/12/18 05:26:09;;;;;;;0.00;0.00;;;;;;;;;;6271427;22;20379;-64
2021/12/18 05:28:34;;;;;;;0.00;0.00;;;;;;;;;;6270880;22;20000;-64
2021/12/18 05:30:59;;;;;;;0.00;0.00;;;;;;;;;;6271547;22;20004;-64
2021/12/18 05:33:24;;;;;;;0.00;0.00;;;;;;;;;;6270941;22;20004;-64
2021/12/18 05:35:49;;;;;;;0.08;0.08;;;;;;;;;;6269792;22;20417;-65
2021/12/18 05:38:15;;;;;;;0.60;0.60;;;;;;;;;;6270747;22;20534;-65
2021/12/18 05:40:40;;;;;;;0.00;0.00;;;;;;;;;;6270603;22;20000;-65
2021/12/18 05:43:06;;;;;;;0.00;0.00;;;;;;;;;;6270926;22;19996;-65
2021/12/18 05:45:31;;;;;;;0.00;0.00;;;;;;;;;;6269841;22;19992;-65
2021/12/18 05:47:57;;;;;;;0.00;0.00;;;;;;;;;;6271230;22;20002;-65
2021/12/18 05:50:28;;;;;;;0.00;0.00;;;;;;;;;;6271252;22;20000;-65
2021/12/18 05:52:54;;;;;;;0.00;0.00;;;;;;;;;;6272563;22;20426;-65
2021/12/18 05:55:22;;;;;;;0.00;0.00;;;;;;;;;;6271710;22;20362;-65
2021/12/18 05:57:47;;;;;;;0.00;0.00;;;;;;;;;;6270393;22;20414;-65
2021/12/18 06:00:16;;;;;;;0.00;0.00;;;;;;;;;;6270038;22;20007;-65
2021/12/18 06:02:41;;;;;;;0.00;0.00;;;;;;;;;;6269657;22;20004;-65
2021/12/18 06:05:07;;;;;;;0.00;0.00;;;;;;;;;;6270091;22;20007;-64
2021/12/18 06:07:43;;;;;;;0.57;0.57;;;;;;;;;;6269648;22;20007;-65
2021/12/18 06:10:08;;;;;;;0.00;0.00;;;;;;;;;;6271091;22;20413;-65
2021/12/18 06:12:33;;;;;;;14.93;13.95;;;;;;;;;;6269855;22;20010;-65
2021/12/18 06:15:01;;;;;;;0.00;0.00;;;;;;;;;;6271799;22;20005;-67
2021/12/18 06:17:27;;;;;;;1.23;1.15;;;;;;;;;;6272664;22;20014;-65
2021/12/18 06:19:52;;;;;;;0.90;0.90;;;;;;;;;;6271339;22;20098;-65
2021/12/18 06:22:17;;;;;;;0.00;0.00;;;;;;;;;;6271836;22;20100;-65
2021/12/18 06:24:42;;;;;;;0.00;0.00;;;;;;;;;;6271463;22;20645;-65
2021/12/18 06:27:07;;;;;;;0.65;0.65;;;;;;;;;;6272352;22;19996;-64
2021/12/18 06:29:34;;;;;;;0.00;0.00;;;;;;;;;;6271334;22;20007;-64
2021/12/18 06:31:59;;;;;;;0.00;0.00;;;;;;;;;;6272166;22;20007;-64
2021/12/18 06:34:24;;;;;;;0.20;0.20;;;;;;;;;;6272240;22;20004;-65
2021/12/18 06:36:52;;;;;;;0.00;0.00;;;;;;;;;;6271594;22;20004;-64
2021/12/18 06:39:18;;;;;;;1.58;1.48;;;;;;;;;;6272504;22;20057;-65
2021/12/18 06:41:43;;;;;;;0.00;0.00;;;;;;;;;;6271384;22;20003;-65
2021/12/18 06:44:08;;;;;;;0.00;0.00;;;;;;;;;;6272710;22;20078;-65
2021/12/18 06:46:33;;;;;;;0.00;0.00;;;;;;;;;;6271858;22;19991;-65
2021/12/18 06:48:58;;;;;;;1.65;1.65;;;;;;;;;;6271847;22;19996;-65
2021/12/18 06:51:24;;;;;;;0.00;0.00;;;;;;;;;;6271379;22;20006;-65
2021/12/18 06:53:49;;;;;;;0.00;0.00;;;;;;;;;;6271582;22;20061;-64
2021/12/18 06:56:14;;;;;;;0.00;0.00;;;;;;;;;;6272176;22;20398;-65
2021/12/18 06:58:39;;;;;;;7.78;1.13;;;;;;;;;;6270871;22;20023;-65
2021/12/18 07:01:05;;;;;;;0.00;0.00;;;;;;;;;;6271819;22;20038;-64
2021/12/18 07:03:30;;;;;;;0.30;0.30;;;;;;;;;;6271117;22;20042;-65
2021/12/18 07:05:55;;;;;;;0.00;0.00;;;;;;;;;;6272567;22;20439;-65
2021/12/18 07:08:20;;;;;;;0.00;0.00;;;;;;;;;;6272422;22;20002;-66
2021/12/18 07:10:46;;;;;;;0.30;0.30;;;;;;;;;;6270939;22;20303;-66
2021/12/18 07:13:11;;;;;;;0.00;0.00;;;;;;;;;;6272244;22;20291;-67
2021/12/18 07:15:36;;;;;;;0.00;0.00;;;;;;;;;;6272667;22;20071;-66
2021/12/18 07:18:02;;;;;;;0.00;0.00;;;;;;;;;;6271699;22;20006;-66
2021/12/18 07:20:27;;;;;;;0.00;0.00;;;;;;;;;;6243934;22;20062;-66
2021/12/18 07:22:53;;;;;;;0.15;0.15;;;;;;;;;;6271292;22;20030;-65
2021/12/18 07:25:18;;;;;;;0.00;0.00;;;;;;;;;;6267202;22;19996;-65
2021/12/18 07:27:43;;;;;;;0.30;0.30;;;;;;;;;;6270037;22;19999;-66
2021/12/18 07:30:09;;;;;;;0.00;0.00;;;;;;;;;;6271349;22;20015;-65
2021/12/18 07:32:34;;;;;;;1.20;0.73;;;;;;;;;;6271311;22;20004;-65
2021/12/18 07:35:00;;;;;;;0.00;0.00;;;;;;;;;;6271348;22;20031;-66
2021/12/18 07:37:25;;;;;;;0.00;0.00;;;;;;;;;;6271191;22;20003;-66
2021/12/18 07:39:51;;;;;;;1.10;1.10;;;;;;;;;;6242849;22;20760;-66
2021/12/18 07:42:17;;;;;;;0.30;0.30;;;;;;;;;;6271170;22;19996;-68
2021/12/18 07:44:42;;;;;;;0.00;0.00;;;;;;;;;;6243820;22;20000;-68
2021/12/18 07:47:08;;;;;;;0.00;0.00;;;;;;;;;;6271220;22;20000;-66
2021/12/18 07:49:33;;;;;;;0.00;0.00;;;;;;;;;;6270205;22;20045;-65
2021/12/18 07:52:02;;;;;;;0.10;0.10;;;;;;;;;;6271538;22;20000;-65
2021/12/18 07:54:27;;;;;;;0.00;0.00;;;;;;;;;;6270634;22;20000;-67
2021/12/18 07:56:53;;;;;;;0.00;0.00;;;;;;;;;;6270365;22;20011;-66
2021/12/18 07:59:18;;;;;;;0.00;0.00;;;;;;;;;;6271003;22;20392;-66
2021/12/18 08:01:43;;;;;;;0.00;0.00;;;;;;;;;;6269793;22;20095;-66
2021/12/18 08:04:09;;;;;;;0.00;0.00;;;;;;;;;;6271153;22;20003;-67
2021/12/18 08:06:34;;;;;;;0.00;0.00;;;;;;;;;;6270976;22;20030;-66
2021/12/18 08:08:59;;;;;;;0.00;0.00;;;;;;;;;;6271775;22;20003;-66
2021/12/18 08:11:24;;;;;;;0.00;0.00;;;;;;;;;;6270302;22;20095;-67
2021/12/18 08:13:49;;;;;;;0.00;0.00;;;;;;;;;;6269845;22;20674;-67
2021/12/18 08:16:15;;;;;;;0.80;0.80;;;;;;;;;;6270547;22;20364;-66
2021/12/18 08:18:40;;;;;;;0.20;0.20;;;;;;;;;;6270549;22;20035;-65
2021/12/18 08:21:05;;;;;;;0.10;0.10;;;;;;;;;;6270913;22;19999;-67
2021/12/18 08:23:30;;;;;;;0.00;0.00;;;;;;;;;;6270994;22;20035;-67
2021/12/18 08:25:56;;;;;;;0.00;0.00;;;;;;;;;;6270026;22;20026;-67
2021/12/18 08:28:24;;;;;;;0.00;0.00;;;;;;;;;;6242963;22;20319;-66
2021/12/18 08:30:49;;;;;;;0.03;0.03;;;;;;;;;;6267450;22;20003;-66
2021/12/18 08:33:14;;;;;;;0.00;0.00;;;;;;;;;;6270606;22;20027;-67
2021/12/18 08:35:39;;;;;;;0.00;0.00;;;;;;;;;;6269682;22;20003;-67
2021/12/18 08:38:05;;;;;;;0.00;0.00;;;;;;;;;;6269650;22;20050;-67
2021/12/18 08:40:31;;;;;;;0.00;0.00;;;;;;;;;;6269693;22;20325;-67
2021/12/18 08:42:59;;;;;;;0.00;0.00;;;;;;;;;;6270545;22;20079;-67
2021/12/18 08:45:25;;;;;;;0.00;0.00;;;;;;;;;;6270178;22;20061;-68
2021/12/18 08:47:50;;;;;;;0.03;0.03;;;;;;;;;;6269528;22;20544;-67
2021/12/18 08:50:17;;;;;;;0.00;0.00;;;;;;;;;;6270585;22;19992;-67
2021/12/18 08:52:46;;;;;;;0.00;0.00;;;;;;;;;;6269337;22;20030;-67
2021/12/18 08:55:11;;;;;;;0.00;0.00;;;;;;;;;;6270087;22;20022;-67
2021/12/18 08:57:37;;;;;;;1.17;1.17;;;;;;;;;;6270208;22;20896;-66
2021/12/18 09:00:06;;;;;;;0.00;0.00;;;;;;;;;;6270405;22;20421;-66
2021/12/18 09:02:31;;;;;;;0.00;0.00;;;;;;;;;;6269840;22;20299;-66
2021/12/18 09:04:56;;;;;;;0.00;0.00;;;;;;;;;;6269912;22;19992;-65
2021/12/18 09:07:22;;;;;;;0.08;0.05;;;;;;;;;;6270120;22;20333;-65
2021/12/18 09:09:47;;;;;;;0.00;0.00;;;;;;;;;;6267605;22;20078;-66
2021/12/18 09:12:13;;;;;;;0.00;0.00;;;;;;;;;;6269835;22;19999;-65
2021/12/18 09:14:39;;;;;;;0.00;0.00;;;;;;;;;;6269175;22;19992;-66
2021/12/18 09:17:04;;;;;;;0.00;0.00;;;;;;;;;;6269648;22;20075;-66
2021/12/18 09:19:29;;;;;;;0.00;0.00;;;;;;;;;;6270443;22;20038;-67
2021/12/18 09:21:55;;;;;;;3.25;3.05;;;;;;;;;;6269493;22;20042;-67
2021/12/18 09:24:23;;;;;;;0.00;0.00;;;;;;;;;;6270067;22;20000;-67
2021/12/18 09:26:49;;;;;;;0.00;0.00;;;;;;;;;;6269068;22;19992;-67
2021/12/18 09:29:14;;;;;;;0.00;0.00;;;;;;;;;;6270077;22;20015;-67
2021/12/18 09:31:39;;;;;;;0.00;0.00;;;;;;;;;;6269246;22;20007;-66
2021/12/18 09:34:05;;;;;;;0.20;0.20;;;;;;;;;;6270767;22;20007;-66
2021/12/18 09:36:32;;;;;;;0.00;0.00;;;;;;;;;;6270896;22;20000;-66
2021/12/18 09:38:58;;;;;;;0.00;0.00;;;;;;;;;;6270129;22;20004;-65
2021/12/18 09:41:23;;;;;;;0.00;0.00;;;;;;;;;;6269823;22;20034;-65
2021/12/18 09:43:49;;;;;;;0.00;0.00;;;;;;;;;;6270253;22;19999;-66
2021/12/18 09:46:14;;;;;;;0.00;0.00;;;;;;;;;;6270221;22;19996;-66
2021/12/18 09:48:40;;;;;;;0.00;0.00;;;;;;;;;;6270995;22;20026;-66
2021/12/18 09:51:09;;;;;;;0.00;0.00;;;;;;;;;;6269624;22;19996;-66
2021/12/18 09:53:35;;;;;;;0.00;0.00;;;;;;;;;;6271948;22;20073;-64
2021/12/18 09:56:03;;;;;;;1.13;1.13;;;;;;;;;;6272733;22;20027;-65
2021/12/18 09:58:28;;;;;;;0.00;0.00;;;;;;;;;;6272154;22;20016;-65
2021/12/18 10:00:53;;;;;;;0.80;0.80;;;;;;;;;;6272055;22;21068;-65
2021/12/18 10:03:19;;;;;;;0.00;0.00;;;;;;;;;;6244596;22;20003;-65
2021/12/18 10:05:44;;;;;;;0.00;0.00;;;;;;;;;;6243775;22;20023;-65
2021/12/18 10:08:09;;;;;;;0.00;0.00;;;;;;;;;;6271189;22;20373;-68
2021/12/18 10:10:35;;;;;;;0.00;0.00;;;;;;;;;;6270821;22;19992;-67
2021/12/18 10:13:05;;;;;;;0.00;0.00;;;;;;;;;;6271126;22;20000;-67
2021/12/18 10:15:30;;;;;;;0.35;0.35;;;;;;;;;;6271668;22;20010;-65
2021/12/18 10:18:09;;;;;;;0.00;0.00;;;;;;;;;;6270652;22;20018;-65
2021/12/18 10:20:34;;;;;;;0.00;0.00;;;;;;;;;;6271249;22;20074;-68
2021/12/18 10:23:05;;;;;;;0.20;0.20;;;;;;;;;;6272332;22;20027;-65
2021/12/18 10:25:32;;;;;;;0.22;0.22;;;;;;;;;;6271487;22;20221;-64
2021/12/18 10:28:03;;;;;;;0.00;0.00;;;;;;;;;;6271765;22;20003;-63
2021/12/18 10:30:28;;;;;;;0.05;0.05;;;;;;;;;;6272569;22;19999;-62
2021/12/18 10:32:54;;;;;;;0.00;0.00;;;;;;;;;;6271664;22;20325;-63
2021/12/18 10:35:20;;;;;;;0.00;0.00;;;;;;;;;;6272387;22;20507;-64
2021/12/18 10:37:45;;;;;;;0.47;0.47;;;;;;;;;;6271530;22;20010;-64
2021/12/18 10:40:11;;;;;;;5.07;3.00;;;;;;;;;;6273286;22;20004;-63
2021/12/18 10:42:41;;;;;;;0.00;0.00;;;;;;;;;;6272360;22;20074;-63
2021/12/18 10:45:09;;;;;;;0.52;0.52;;;;;;;;;;6271123;22;19996;-63
2021/12/18 10:47:44;;;;;;;0.00;0.00;;;;;;;;;;6272585;22;20773;-63
2021/12/18 10:50:15;;;;;;;0.00;0.00;;;;;;;;;;6245232;22;19995;-63
2021/12/18 10:52:40;;;;;;;0.00;0.00;;;;;;;;;;6270365;22;20008;-63
2021/12/18 10:55:06;;;;;;;0.00;0.00;;;;;;;;;;6271224;22;20004;-63
2021/12/18 10:57:31;;;;;;;0.00;0.00;;;;;;;;;;6270947;22;20007;-63
2021/12/18 10:59:58;;;;;;;0.00;0.00;;;;;;;;;;6269854;22;20069;-63
2021/12/18 11:02:26;;;;;;;0.00;0.00;;;;;;;;;;6270790;22;20053;-62
2021/12/18 11:04:51;;;;;;;0.00;0.00;;;;;;;;;;6244221;22;19999;-63
2021/12/18 11:07:19;;;;;;;0.15;0.15;;;;;;;;;;6270830;22;20589;-63
2021/12/18 11:10:40;;;;;;;0.73;0.73;;;;;;;;;;6270648;22;20000;-63
2021/12/18 11:15:14;;;;;;;1.20;1.17;;;;;;;;;;6270697;22;20061;-63
2021/12/18 11:17:40;;;;;;;0.00;0.00;;;;;;;;;;6270566;22;20019;-63
2021/12/18 11:20:05;;;;;;;0.00;0.00;;;;;;;;;;6270956;22;20008;-62
2021/12/18 11:22:30;;;;;;;0.40;0.40;;;;;;;;;;6270858;22;20361;-63
2021/12/18 11:24:56;;;;;;;0.00;0.00;;;;;;;;;;6271732;22;20057;-62
2021/12/18 11:27:21;;;;;;;0.00;0.00;;;;;;;;;;6244445;22;20444;-62
2021/12/18 11:29:47;;;;;;;0.00;0.00;;;;;;;;;;6270448;22;20003;-62
2021/12/18 11:32:18;;;;;;;0.00;0.00;;;;;;;;;;6244777;22;20010;-64
2021/12/18 11:34:44;;;;;;;0.00;0.00;;;;;;;;;;6243565;22;20096;-66
2021/12/18 11:37:11;;;;;;;0.20;0.20;;;;;;;;;;6271817;22;20007;-63
2021/12/18 11:39:37;;;;;;;0.20;0.20;;;;;;;;;;6271527;22;20045;-63
2021/12/18 11:42:03;;;;;;;0.30;0.30;;;;;;;;;;6269084;22;20077;-63
2021/12/18 11:44:37;;;;;;;0.20;0.20;;;;;;;;;;6267086;22;19995;-63
2021/12/18 11:47:21;;;;;;;0.00;0.00;;;;;;;;;;6266650;22;19996;-63
2021/12/18 11:49:46;;;;;;;0.00;0.00;;;;;;;;;;6242101;22;20077;-62
2021/12/18 11:52:12;;;;;;;2.90;2.63;;;;;;;;;;6271297;22;20003;-63
2021/12/18 11:54:49;;;;;;;0.00;0.00;;;;;;;;;;6271777;22;20049;-64
2021/12/18 11:57:33;;;;;;;0.30;0.30;;;;;;;;;;6270813;22;20004;-63
2021/12/18 11:59:59;;;;;;;0.00;0.00;;;;;;;;;;6271400;22;20026;-63
2021/12/18 12:02:40;;;;;;;0.55;0.32;;;;;;;;;;6271366;22;20106;-64
2021/12/18 12:05:06;;;;;;;0.00;0.00;;;;;;;;;;6270928;22;20477;-64
2021/12/18 12:07:31;;;;;;;0.10;0.10;;;;;;;;;;6270533;22;19992;-63
2021/12/18 12:10:13;;;;;;;0.15;0.15;;;;;;;;;;6270438;22;20731;-62
2021/12/18 12:12:49;;;;;;;0.00;0.00;;;;;;;;;;6270860;22;20417;-63
2021/12/18 12:15:16;;;;;;;0.00;0.00;;;;;;;;;;6270811;22;20011;-62
2021/12/18 12:17:54;;;;;;;0.63;0.63;;;;;;;;;;6268351;22;20011;-62
2021/12/18 12:20:51;;;;;;;0.00;0.00;;;;;;;;;;6270949;22;20000;-62
2021/12/18 12:23:16;;;;;;;0.20;0.20;;;;;;;;;;6269835;22;20197;-62
2021/12/18 12:25:46;;;;;;;1.08;1.08;;;;;;;;;;6271094;22;20079;-63
2021/12/18 12:28:12;;;;;;;0.00;0.00;;;;;;;;;;6271991;22;20004;-63
2021/12/18 12:30:43;;;;;;;0.10;0.10;;;;;;;;;;6270464;22;20004;-63
2021/12/18 12:33:13;;;;;;;0.00;0.00;;;;;;;;;;6272373;22;20045;-63
2021/12/18 12:35:58;;;;;;;0.00;0.00;;;;;;;;;;6271841;22;20026;-63
2021/12/18 12:38:24;;;;;;;0.00;0.00;;;;;;;;;;6271287;22;20004;-63
2021/12/18 12:40:49;;;;;;;0.00;0.00;;;;;;;;;;6271720;22;19999;-62
2021/12/18 12:43:25;;;;;;;0.00;0.00;;;;;;;;;;6271586;22;20003;-61
2021/12/18 12:45:53;;;;;;;0.00;0.00;;;;;;;;;;6270783;22;20031;-62
2021/12/18 12:48:18;;;;;;;0.00;0.00;;;;;;;;;;6271658;22;20057;-62
2021/12/18 12:50:53;;;;;;;0.00;0.00;;;;;;;;;;6271415;22;19988;-62
2021/12/18 12:53:18;;;;;;;0.00;0.00;;;;;;;;;;6272059;22;20030;-63
2021/12/18 12:55:45;;;;;;;0.00;0.00;;;;;;;;;;6270287;22;20422;-62
2021/12/18 12:58:16;;;;;;;3.30;3.20;;;;;;;;;;6270126;22;20012;-63
2021/12/18 13:00:43;;;;;;;0.00;0.00;;;;;;;;;;6269873;22;20455;-62
2021/12/18 13:03:11;;;;;;;0.00;0.00;;;;;;;;;;6271304;22;20027;-62
2021/12/18 13:05:50;;;;;;;0.00;0.00;;;;;;;;;;6271603;22;20006;-62
2021/12/18 13:08:16;;;;;;;0.00;0.00;;;;;;;;;;6243898;22;20004;-62
2021/12/18 13:10:42;;;;;;;5.57;5.38;;;;;;;;;;6270467;22;20006;-62
2021/12/18 13:13:11;;;;;;;0.00;0.00;;;;;;;;;;6271196;22;20000;-62
2021/12/18 13:15:49;;;;;;;0.20;0.20;;;;;;;;;;6272141;22;20007;-62
2021/12/18 13:18:14;;;;;;;1.63;1.52;;;;;;;;;;6271398;22;20004;-63
2021/12/18 13:20:55;;;;;;;0.38;0.30;;;;;;;;;;6269981;22;20530;-63
2021/12/18 13:23:21;;;;;;;0.38;0.20;;;;;;;;;;6271516;22;20004;-62
2021/12/18 13:25:54;;;;;;;0.45;0.45;;;;;;;;;;6271370;22;20000;-62
2021/12/18 13:28:19;;;;;;;0.00;0.00;;;;;;;;;;6271570;22;19998;-62
2021/12/18 13:30:47;;;;;;;0.00;0.00;;;;;;;;;;6271591;22;20078;-62
2021/12/18 13:33:13;;;;;;;0.00;0.00;;;;;;;;;;6272381;22;20004;-61
2021/12/18 13:35:39;;;;;;;0.00;0.00;;;;;;;;;;6270826;22;20006;-62
2021/12/18 13:38:10;;;;;;;0.00;0.00;;;;;;;;;;6271820;22;20004;-63
2021/12/18 13:40:43;;;;;;;0.00;0.00;;;;;;;;;;6271207;22;20014;-62
2021/12/18 13:43:09;;;;;;;0.00;0.00;;;;;;;;;;6269354;22;20058;-62
2021/12/18 13:45:53;;;;;;;0.00;0.00;;;;;;;;;;6270544;22;19996;-63
2021/12/18 13:48:19;;;;;;;0.00;0.00;;;;;;;;;;6271725;22;20048;-62
2021/12/18 13:50:51;;;;;;;0.50;0.50;;;;;;;;;;6270195;22;20075;-62
2021/12/18 13:53:17;;;;;;;0.00;0.00;;;;;;;;;;6271962;22;19999;-62
2021/12/18 13:55:43;;;;;;;0.00;0.00;;;;;;;;;;6270662;22;20000;-61
2021/12/18 13:58:27;;;;;;;0.00;0.00;;;;;;;;;;6271258;22;20020;-62
2021/12/18 14:01:04;;;;;;;0.00;0.00;;;;;;;;;;6269679;22;20058;-62
2021/12/18 14:03:30;;;;;;;0.00;0.00;;;;;;;;;;6271631;22;20079;-62
2021/12/18 14:05:58;;;;;;;0.00;0.00;;;;;;;;;;6271014;22;20066;-62
2021/12/18 14:08:23;;;;;;;0.00;0.00;;;;;;;;;;6271952;22;20421;-62
2021/12/18 14:10:49;;;;;;;0.00;0.00;;;;;;;;;;6270387;22;19991;-62
2021/12/18 14:13:14;;;;;;;0.00;0.00;;;;;;;;;;6271387;22;20010;-61
2021/12/18 14:15:40;;;;;;;0.00;0.00;;;;;;;;;;6267908;22;20078;-63
2021/12/18 14:18:25;;;;;;;0.00;0.00;;;;;;;;;;6242968;22;20015;-63
2021/12/18 14:20:50;;;;;;;0.00;0.00;;;;;;;;;;6189716;22;20031;-63
2021/12/18 14:23:16;;;;;;;0.00;0.00;;;;;;;;;;6270027;22;19992;-62
2021/12/18 14:25:41;;;;;;;0.73;0.73;;;;;;;;;;6270818;22;19996;-63
2021/12/18 14:28:06;;;;;;;0.00;0.00;;;;;;;;;;6267475;22;19996;-62
2021/12/18 14:30:35;;;;;;;0.05;0.05;;;;;;;;;;6270956;22;20004;-62
2021/12/18 14:33:04;;;;;;;0.00;0.00;;;;;;;;;;6243115;22;20011;-61
2021/12/18 14:35:30;;;;;;;0.00;0.00;;;;;;;;;;6271163;22;20006;-62
2021/12/18 14:37:59;;;;;;;0.00;0.00;;;;;;;;;;6272295;22;20075;-62
2021/12/18 14:40:25;;;;;;;0.00;0.00;;;;;;;;;;6271554;22;20007;-62
2021/12/18 14:42:58;;;;;;;0.00;0.00;;;;;;;;;;6272324;22;20011;-62
2021/12/18 14:45:25;;;;;;;0.00;0.00;;;;;;;;;;6271565;22;20022;-62
2021/12/18 14:47:52;;;;;;;0.00;0.00;;;;;;;;;;6272274;22;20402;-63
2021/12/18 14:50:22;;;;;;;0.00;0.00;;;;;;;;;;6272010;22;19992;-62
2021/12/18 14:52:50;;;;;;;0.00;0.00;;;;;;;;;;6272158;22;20105;-62
2021/12/18 14:55:18;;;;;;;0.00;0.00;;;;;;;;;;6272719;22;20009;-62
2021/12/18 14:58:01;;;;;;;0.00;0.00;;;;;;;;;;6270806;22;20376;-62
2021/12/18 15:00:28;;;;;;;0.05;0.05;;;;;;;;;;6271970;22;19995;-62
2021/12/18 15:02:58;;;;;;;0.00;0.00;;;;;;;;;;6271668;22;20074;-62
2021/12/18 15:05:44;;;;;;;0.00;0.00;;;;;;;;;;6272761;22;19995;-62
2021/12/18 15:08:17;;;;;;;0.00;0.00;;;;;;;;;;6243439;22;20091;-62
2021/12/18 15:10:50;;;;;;;0.00;0.00;;;;;;;;;;6271783;22;20073;-62
2021/12/18 15:13:16;;;;;;;0.00;0.00;;;;;;;;;;6271980;22;19996;-62
2021/12/18 15:15:43;;;;;;;0.00;0.00;;;;;;;;;;6272071;22;20161;-63
2021/12/18 15:18:08;;;;;;;0.00;0.00;;;;;;;;;;6271401;22;20422;-62
2021/12/18 15:20:33;;;;;;;0.00;0.00;;;;;;;;;;6271848;22;20000;-63
2021/12/18 15:22:59;;;;;;;0.00;0.00;;;;;;;;;;6271179;22;20594;-62
2021/12/18 15:25:24;;;;;;;0.00;0.00;;;;;;;;;;6272147;22;19995;-63
2021/12/18 15:27:49;;;;;;;0.00;0.00;;;;;;;;;;6270145;22;20004;-63
2021/12/18 15:30:14;;;;;;;0.00;0.00;;;;;;;;;;6272056;22;20027;-63
2021/12/18 15:32:40;;;;;;;0.00;0.00;;;;;;;;;;6272754;22;20023;-62
2021/12/18 15:35:05;;;;;;;0.30;0.30;;;;;;;;;;6271499;22;19998;-63
2021/12/18 15:37:30;;;;;;;0.00;0.00;;;;;;;;;;6272077;22;20004;-63